Time;durP1;ratioP1;P1;durP2;ratioP2;P2;SDS_P1;SDS_P2;PMS_P1;PMS_P2;Temp;Humidity;BMP_temperature;BMP_pressure;BME280_temperature;BME280_humidity;BME280_pressure;Samples;Min_cycle;Max_cycle;Signal;HPM_P1;HPM_P2
2023/05/26 00:02:14;;;;;;;28.90;12.48;;;;;;;9.40;87.12;102784.06;5070916;28;20024;-53
2023/05/26 00:04:43;;;;;;;27.40;12.20;;;;;;;9.36;87.46;102794.78;5071415;28;20027;-52
2023/05/26 00:07:08;;;;;;;28.70;12.60;;;;;;;9.28;88.16;102784.13;5070925;28;20356;-54
2023/05/26 00:09:33;;;;;;;30.60;12.98;;;;;;;9.21;89.11;102783.44;5071061;28;20017;-54
2023/05/26 00:11:59;;;;;;;28.10;12.88;;;;;;;9.15;89.34;102784.44;5074580;28;20034;-54
2023/05/26 00:14:24;;;;;;;30.40;12.82;;;;;;;9.15;89.38;102793.59;5075476;28;20090;-54
2023/05/26 00:16:49;;;;;;;30.75;12.63;;;;;;;9.05;90.00;102794.22;5075635;28;20449;-55
2023/05/26 00:19:17;;;;;;;29.63;13.40;;;;;;;9.05;90.31;102793.41;5075847;28;20037;-53
2023/05/26 00:21:42;;;;;;;27.90;12.82;;;;;;;9.07;90.33;102793.13;5075688;28;20067;-54
2023/05/26 00:24:08;;;;;;;28.30;12.35;;;;;;;9.12;89.71;102793.22;5075579;28;20056;-57
2023/05/26 00:26:33;;;;;;;29.77;12.80;;;;;;;9.10;89.92;102798.16;5075556;28;20052;-53
2023/05/26 00:28:59;;;;;;;30.27;13.27;;;;;;;8.99;90.96;102797.13;5073934;28;20407;-54
2023/05/26 00:31:24;;;;;;;27.00;12.88;;;;;;;8.93;91.58;102798.94;5074342;28;20082;-55
2023/05/26 00:33:50;;;;;;;29.67;12.90;;;;;;;8.90;91.71;102800.28;5074775;28;20086;-54
2023/05/26 00:36:15;;;;;;;31.73;13.30;;;;;;;8.88;91.80;102807.16;5074482;28;20035;-54
2023/05/26 00:38:40;;;;;;;26.13;12.02;;;;;;;8.90;91.96;102796.69;5075253;28;20083;-53
2023/05/26 00:41:06;;;;;;;30.30;12.73;;;;;;;8.93;91.08;102800.88;5075000;28;20162;-53
2023/05/26 00:43:31;;;;;;;28.88;12.88;;;;;;;8.84;92.09;102798.53;5074942;28;20115;-55
2023/05/26 00:45:57;;;;;;;26.30;13.30;;;;;;;8.79;92.47;102801.16;5075040;28;20115;-54
2023/05/26 00:48:22;;;;;;;30.90;12.55;;;;;;;8.83;92.38;102799.59;5075155;28;20032;-55
2023/05/26 00:50:47;;;;;;;26.27;12.38;;;;;;;8.77;92.66;102803.34;5074923;28;20016;-52
2023/05/26 00:53:13;;;;;;;31.48;13.25;;;;;;;8.69;92.97;102804.56;5070756;28;20028;-55
2023/05/26 00:55:40;;;;;;;31.05;12.98;;;;;;;8.65;93.32;102797.03;5075189;28;20035;-54
2023/05/26 00:58:06;;;;;;;28.33;12.27;;;;;;;8.64;92.87;102795.34;5075159;28;20060;-51
2023/05/26 01:00:31;;;;;;;28.92;12.77;;;;;;;8.67;92.86;102803.16;5074793;28;20043;-53
2023/05/26 01:02:58;;;;;;;26.38;12.60;;;;;;;8.65;92.61;102797.03;5074697;28;20113;-54
2023/05/26 01:05:24;;;;;;;30.15;12.90;;;;;;;8.62;92.77;102800.28;5074723;28;20039;-52
2023/05/26 01:07:49;;;;;;;32.00;12.82;;;;;;;8.52;93.44;102798.97;5074502;28;20108;-53
2023/05/26 01:10:15;;;;;;;29.13;12.63;;;;;;;8.57;92.42;102815.66;5074479;28;20112;-53
2023/05/26 01:12:53;;;;;;;25.77;12.35;;;;;;;8.51;93.13;102808.34;5074297;28;20036;-52
2023/05/26 01:15:26;;;;;;;29.58;12.57;;;;;;;8.50;93.17;102803.91;5074281;28;20028;-52
2023/05/26 01:18:05;;;;;;;29.23;12.73;;;;;;;8.50;93.51;102798.38;5074195;28;20128;-53
2023/05/26 01:20:45;;;;;;;32.22;13.20;;;;;;;8.45;93.57;102809.28;5074329;28;20263;-54
2023/05/26 01:23:46;;;;;;;28.35;12.77;;;;;;;8.43;93.52;102816.97;5073839;28;20044;-53
2023/05/26 01:26:24;;;;;;;29.42;12.70;;;;;;;8.37;94.06;102815.19;5074065;28;20067;-53
2023/05/26 01:28:55;;;;;;;31.25;12.85;;;;;;;8.36;94.00;102810.75;5073802;28;20057;-53
2023/05/26 01:31:20;;;;;;;29.70;13.15;;;;;;;8.32;94.32;102810.41;5073877;28;20032;-53
2023/05/26 01:33:46;;;;;;;28.48;12.85;;;;;;;8.33;93.96;102812.09;5074019;28;20043;-51
2023/05/26 01:36:11;;;;;;;28.73;12.43;;;;;;;8.27;94.09;102813.88;5074188;28;20032;-53
2023/05/26 01:38:36;;;;;;;28.38;12.20;;;;;;;8.24;94.72;102813.53;5073538;28;20028;-53
2023/05/26 01:41:11;;;;;;;31.17;12.95;;;;;;;8.16;95.25;102809.22;5073506;28;20476;-53
2023/05/26 01:43:46;;;;;;;29.20;12.75;;;;;;;8.15;95.17;102810.28;5073285;28;20043;-49
2023/05/26 01:46:41;;;;;;;31.75;12.82;;;;;;;8.15;95.20;102809.47;5073545;28;20519;-54
2023/05/26 01:49:08;;;;;;;;;;;;;;;8.12;94.26;102819.91;5074334;28;20087;-52
2023/05/26 01:51:36;;;;;;;31.75;12.25;;;;;;;8.00;95.81;102820.97;5073721;28;19913;-55
2023/05/26 01:54:08;;;;;;;29.27;11.82;;;;;;;7.97;96.17;102819.56;5073679;28;20039;-53
2023/05/26 01:56:35;;;;;;;27.38;12.88;;;;;;;7.90;97.03;102814.16;5069869;28;20047;-54
2023/05/26 01:59:01;;;;;;;29.35;12.90;;;;;;;7.86;97.14;102817.63;5051558;28;20028;-54
2023/05/26 02:01:27;;;;;;;29.45;12.38;;;;;;;7.83;97.26;102820.84;5073603;28;20034;-55
2023/05/26 02:03:53;;;;;;;33.33;13.43;;;;;;;7.80;97.05;102817.50;5073320;28;20353;-54
2023/05/26 02:06:18;;;;;;;31.52;13.23;;;;;;;7.77;97.37;102811.63;5073361;28;20023;-54
2023/05/26 02:08:43;;;;;;;26.25;12.55;;;;;;;7.76;97.40;102820.97;5073117;28;20032;-54
2023/05/26 02:11:09;;;;;;;24.85;11.88;;;;;;;7.73;97.58;102822.28;5072915;28;20032;-55
2023/05/26 02:13:34;;;;;;;30.10;13.20;;;;;;;7.70;97.70;102824.69;5073383;28;20085;-55
2023/05/26 02:16:00;;;;;;;28.25;12.70;;;;;;;7.70;97.47;102822.75;5073050;28;20035;-56
2023/05/26 02:18:25;;;;;;;29.58;12.32;;;;;;;7.66;97.59;102827.06;5073185;28;20032;-54
2023/05/26 02:20:50;;;;;;;30.02;12.93;;;;;;;7.62;98.18;102825.84;5073104;28;20434;-53
2023/05/26 02:23:16;;;;;;;29.95;12.75;;;;;;;7.57;98.39;102828.50;5073175;28;20032;-54
2023/05/26 02:25:41;;;;;;;27.23;11.82;;;;;;;7.59;97.67;102831.88;5072648;28;20111;-54
2023/05/26 02:28:07;;;;;;;31.08;13.02;;;;;;;7.59;97.82;102827.19;5064898;28;20071;-52
2023/05/26 02:30:32;;;;;;;29.85;12.95;;;;;;;7.53;98.38;102836.41;5052584;28;20033;-54
2023/05/26 02:32:57;;;;;;;30.08;13.02;;;;;;;7.49;99.08;102838.78;5052282;28;20363;-53
2023/05/26 02:35:23;;;;;;;28.08;12.25;;;;;;;7.45;98.72;102832.06;5034996;28;20041;-53
2023/05/26 02:37:48;;;;;;;29.65;12.95;;;;;;;7.46;98.87;102838.44;5052957;28;20029;-54
2023/05/26 02:40:13;;;;;;;31.55;13.30;;;;;;;7.39;99.77;102835.78;5052477;28;20033;-54
2023/05/26 02:42:39;;;;;;;31.98;13.57;;;;;;;7.37;100.00;102837.09;5052256;28;20129;-53
2023/05/26 02:45:05;;;;;;;31.27;12.60;;;;;;;7.33;99.87;102836.69;5052305;28;20025;-56
2023/05/26 02:47:30;;;;;;;28.10;12.15;;;;;;;7.32;100.00;102830.38;5052542;28;20104;-54
2023/05/26 02:49:55;;;;;;;30.95;13.20;;;;;;;7.28;100.00;102831.88;5052532;28;20079;-54
2023/05/26 02:52:22;;;;;;;30.13;13.50;;;;;;;7.24;100.00;102829.84;5045390;28;20493;-54
2023/05/26 02:54:48;;;;;;;30.70;13.40;;;;;;;7.26;100.00;102835.97;5051719;28;20021;-54
2023/05/26 02:57:13;;;;;;;24.88;11.98;;;;;;;7.28;100.00;102831.06;5052428;28;20439;-55
2023/05/26 02:59:38;;;;;;;28.73;12.30;;;;;;;7.29;99.85;102828.06;5051759;28;20426;-54
2023/05/26 03:02:04;;;;;;;34.30;13.02;;;;;;;7.29;99.41;102824.50;5052277;28;20108;-54
2023/05/26 03:04:29;;;;;;;31.33;12.57;;;;;;;7.23;100.00;102833.66;5034046;28;20622;-55
2023/05/26 03:06:54;;;;;;;33.40;12.88;;;;;;;7.17;100.00;102827.22;5052337;28;20105;-54
2023/05/26 03:09:20;;;;;;;30.92;13.05;;;;;;;7.13;100.00;102829.56;5051482;28;20032;-55
2023/05/26 03:11:45;;;;;;;27.05;13.10;;;;;;;7.09;100.00;102835.78;5051354;28;20473;-54
2023/05/26 03:14:11;;;;;;;27.40;13.05;;;;;;;7.04;100.00;102830.97;5051011;28;20055;-54
2023/05/26 03:16:36;;;;;;;29.92;13.48;;;;;;;7.03;100.00;102829.31;5051366;28;20033;-54
2023/05/26 03:19:03;;;;;;;30.00;12.80;;;;;;;7.05;100.00;102823.56;5051716;28;20029;-53
2023/05/26 03:21:28;;;;;;;28.25;12.63;;;;;;;7.04;100.00;102830.97;5051810;28;20365;-53
2023/05/26 03:23:53;;;;;;;30.98;12.82;;;;;;;7.03;100.00;102837.56;5051328;28;20448;-52
2023/05/26 03:26:20;;;;;;;33.00;13.70;;;;;;;7.04;100.00;102841.97;5051806;28;20099;-53
2023/05/26 03:28:46;;;;;;;28.98;12.30;;;;;;;7.01;100.00;102836.97;5051123;28;20053;-54
2023/05/26 03:31:11;;;;;;;27.38;12.63;;;;;;;7.02;100.00;102844.16;5050850;28;20370;-53
2023/05/26 03:33:36;;;;;;;30.42;13.07;;;;;;;7.02;100.00;102842.22;5051606;28;20153;-53
2023/05/26 03:36:02;;;;;;;30.05;13.70;;;;;;;7.01;100.00;102847.97;5051326;28;20033;-54
2023/05/26 03:38:27;;;;;;;31.15;13.02;;;;;;;7.03;100.00;102851.34;5050919;28;20218;-54
2023/05/26 03:40:53;;;;;;;35.05;12.90;;;;;;;7.00;100.00;102852.63;5050707;28;20113;-55
2023/05/26 03:43:18;;;;;;;31.90;12.98;;;;;;;7.01;100.00;102856.22;5051108;28;20397;-55
2023/05/26 03:45:43;;;;;;;31.58;13.25;;;;;;;7.02;100.00;102850.47;5050428;28;20346;-54
2023/05/26 03:48:12;;;;;;;35.83;13.35;;;;;;;7.02;100.00;102858.75;5051182;28;20037;-53
2023/05/26 03:50:38;;;;;;;26.35;11.95;;;;;;;7.03;100.00;102859.59;5051241;28;20017;-56
2023/05/26 03:53:03;;;;;;;30.30;12.82;;;;;;;7.01;100.00;102857.06;5025728;28;20036;-55
2023/05/26 03:55:29;;;;;;;30.52;12.70;;;;;;;7.03;100.00;102856.84;5051377;28;20025;-53
2023/05/26 03:57:54;;;;;;;33.20;12.82;;;;;;;7.09;100.00;102866.06;5051626;28;20488;-55
2023/05/26 04:00:19;;;;;;;30.70;12.60;;;;;;;7.08;100.00;102864.41;5033164;28;20392;-55
2023/05/26 04:02:45;;;;;;;33.17;13.50;;;;;;;7.06;100.00;102858.28;5051335;28;20094;-55
2023/05/26 04:05:10;;;;;;;28.67;12.02;;;;;;;7.09;100.00;102847.66;5050557;28;20056;-55
2023/05/26 04:07:35;;;;;;;35.15;13.05;;;;;;;7.11;100.00;102851.00;5051578;28;20033;-55
2023/05/26 04:10:01;;;;;;;28.25;12.52;;;;;;;7.18;100.00;102856.41;5051252;28;20568;-54
2023/05/26 04:12:26;;;;;;;33.90;12.20;;;;;;;7.20;100.00;102862.50;5051339;28;20039;-53
2023/05/26 04:14:51;;;;;;;28.10;12.20;;;;;;;7.18;100.00;102854.50;5051103;28;20071;-54
2023/05/26 04:17:17;;;;;;;31.55;12.40;;;;;;;7.18;100.00;102871.00;5050995;28;20028;-56
2023/05/26 04:19:42;;;;;;;33.53;13.20;;;;;;;7.18;100.00;102860.00;5051223;28;20334;-54
2023/05/26 04:22:07;;;;;;;27.45;12.00;;;;;;;7.23;100.00;102866.69;5051162;28;20145;-54
2023/05/26 04:24:33;;;;;;;28.95;12.48;;;;;;;7.28;100.00;102872.38;5051032;28;20021;-54
2023/05/26 04:26:58;;;;;;;30.90;12.13;;;;;;;7.28;100.00;102866.84;5051460;28;20036;-55
2023/05/26 04:29:24;;;;;;;33.33;12.88;;;;;;;7.33;100.00;102866.97;5051059;28;20091;-55
2023/05/26 04:31:50;;;;;;;30.23;11.98;;;;;;;7.37;100.00;102872.88;5050383;28;20025;-54
2023/05/26 04:34:20;;;;;;;29.67;12.05;;;;;;;7.40;100.00;102875.16;5050425;28;20041;-56
2023/05/26 04:36:46;;;;;;;33.92;12.90;;;;;;;7.34;100.00;102877.78;5050949;28;20021;-54
2023/05/26 04:39:11;;;;;;;31.92;13.35;;;;;;;7.38;100.00;102874.53;5050133;28;20025;-55
2023/05/26 04:41:38;;;;;;;30.35;13.05;;;;;;;7.41;100.00;102874.09;5051178;28;20166;-55
2023/05/26 04:44:04;;;;;;;27.10;12.23;;;;;;;7.43;100.00;102881.03;5051071;28;20485;-54
2023/05/26 04:46:29;;;;;;;29.52;12.25;;;;;;;7.42;100.00;102881.28;5051210;28;20032;-54
2023/05/26 04:48:58;;;;;;;28.50;11.82;;;;;;;7.49;100.00;102876.50;5051208;28;20035;-54
2023/05/26 04:51:23;;;;;;;29.05;12.48;;;;;;;7.56;100.00;102870.88;5033163;28;20084;-53
2023/05/26 04:53:50;;;;;;;32.15;11.85;;;;;;;7.60;100.00;102880.38;5051147;28;20068;-52
2023/05/26 04:56:15;;;;;;;30.23;11.70;;;;;;;7.66;99.91;102884.94;5052001;28;20171;-54
2023/05/26 04:58:41;;;;;;;29.73;12.60;;;;;;;7.75;99.32;102879.91;5047096;28;20528;-54
2023/05/26 05:01:06;;;;;;;28.73;11.32;;;;;;;7.86;98.90;102886.53;5054283;28;20044;-52
2023/05/26 05:03:34;;;;;;;27.63;11.23;;;;;;;7.94;98.27;102886.16;5054151;28;20515;-52
2023/05/26 05:06:00;;;;;;;31.75;11.88;;;;;;;8.03;97.66;102894.94;5054243;28;20032;-53
2023/05/26 05:08:26;;;;;;;28.70;10.77;;;;;;;7.99;97.30;102877.19;5054381;28;20046;-53
2023/05/26 05:10:51;;;;;;;30.27;11.30;;;;;;;8.12;96.81;102893.50;5054182;28;20029;-54
2023/05/26 05:13:16;;;;;;;31.42;12.05;;;;;;;8.21;96.70;102893.97;5054389;28;20078;-55
2023/05/26 05:15:42;;;;;;;23.95;11.60;;;;;;;8.23;95.67;102889.06;5053754;28;20028;-55
2023/05/26 05:18:07;;;;;;;27.42;10.85;;;;;;;8.28;95.70;102892.78;5054368;28;20032;-55
2023/05/26 05:20:32;;;;;;;31.20;11.82;;;;;;;8.39;95.67;102891.09;5053787;28;20499;-56
2023/05/26 05:22:57;;;;;;;33.03;12.32;;;;;;;8.43;94.96;102903.31;5053847;28;20060;-56
2023/05/26 05:25:23;;;;;;;28.00;11.40;;;;;;;8.48;94.94;102897.13;5054039;28;20017;-54
2023/05/26 05:27:48;;;;;;;33.40;11.48;;;;;;;8.46;94.25;102902.00;5054108;28;20041;-55
2023/05/26 05:30:14;;;;;;;28.75;11.90;;;;;;;8.50;94.25;102905.97;5053766;28;20021;-55
2023/05/26 05:32:39;;;;;;;31.33;11.90;;;;;;;8.54;93.47;102907.19;5054085;28;20032;-55
2023/05/26 05:35:05;;;;;;;29.27;11.20;;;;;;;8.58;93.76;102907.53;5054108;28;20071;-55
2023/05/26 05:37:30;;;;;;;27.63;11.27;;;;;;;8.71;93.34;102904.53;5053534;28;20057;-55
2023/05/26 05:39:56;;;;;;;36.22;13.73;;;;;;;8.77;92.76;102915.66;5053748;28;20036;-56
2023/05/26 05:42:24;;;;;;;32.30;11.93;;;;;;;8.76;91.91;102906.53;5054036;28;20047;-55
2023/05/26 05:44:49;;;;;;;33.13;11.90;;;;;;;8.76;92.01;102905.69;5054225;28;20127;-56
2023/05/26 05:47:14;;;;;;;31.40;12.30;;;;;;;8.78;91.86;102915.44;5054099;28;20037;-55
2023/05/26 05:49:40;;;;;;;28.85;11.52;;;;;;;8.82;91.64;102910.25;5051765;28;20468;-55
2023/05/26 05:52:05;;;;;;;30.05;11.80;;;;;;;8.87;91.37;102916.72;5040171;28;20029;-54
2023/05/26 05:54:30;;;;;;;30.83;12.57;;;;;;;8.95;91.50;102921.00;5039169;28;20574;-55
2023/05/26 05:56:55;;;;;;;30.35;11.60;;;;;;;9.03;90.66;102922.56;5044335;28;20100;-55
2023/05/26 05:59:21;;;;;;;30.13;12.55;;;;;;;9.09;89.78;102924.31;5043562;28;20382;-55
2023/05/26 06:01:46;;;;;;;28.50;11.55;;;;;;;9.17;89.93;102925.88;5042606;28;20033;-55
2023/05/26 06:04:11;;;;;;;27.75;11.10;;;;;;;9.17;88.86;102929.47;5044447;28;20032;-56
2023/05/26 06:06:36;;;;;;;30.42;11.05;;;;;;;9.19;88.73;102930.06;5042387;28;20034;-54
2023/05/26 06:09:02;;;;;;;30.27;11.48;;;;;;;9.27;88.55;102934.38;5046883;28;20399;-56
2023/05/26 06:11:27;;;;;;;27.90;11.02;;;;;;;9.30;88.23;102927.50;5053306;28;20036;-55
2023/05/26 06:13:52;;;;;;;30.92;12.02;;;;;;;9.36;88.10;102932.03;5053364;28;20020;-55
2023/05/26 06:16:18;;;;;;;30.95;11.93;;;;;;;9.43;87.57;102938.28;5053362;28;20472;-56
2023/05/26 06:18:43;;;;;;;35.88;11.60;;;;;;;9.43;86.88;102934.66;5053362;28;20032;-55
2023/05/26 06:21:08;;;;;;;27.40;11.00;;;;;;;9.48;87.74;102943.06;5053279;28;20067;-53
2023/05/26 06:23:34;;;;;;;32.25;11.75;;;;;;;9.59;86.88;102946.84;5051962;28;20484;-56
2023/05/26 06:25:59;;;;;;;30.60;11.98;;;;;;;9.61;86.21;102937.22;5053374;28;20028;-55
2023/05/26 06:28:24;;;;;;;28.67;11.20;;;;;;;9.75;86.53;102936.91;5053012;28;20396;-51
2023/05/26 06:30:50;;;;;;;30.63;12.57;;;;;;;9.82;85.57;102943.94;5053080;28;20032;-55
2023/05/26 06:33:15;;;;;;;27.65;11.30;;;;;;;9.87;84.86;102937.66;5053057;28;20028;-56
2023/05/26 06:35:40;;;;;;;25.42;10.95;;;;;;;9.77;84.39;102937.50;5052893;28;20024;-56
2023/05/26 06:38:06;;;;;;;28.85;11.68;;;;;;;9.73;84.54;102959.25;5053232;28;20389;-56
2023/05/26 06:40:31;;;;;;;31.23;12.43;;;;;;;9.68;84.54;102948.09;5053153;28;20472;-55
2023/05/26 06:42:56;;;;;;;32.92;12.15;;;;;;;9.70;84.78;102937.66;5034805;28;20029;-56
2023/05/26 06:45:21;;;;;;;28.15;11.63;;;;;;;9.84;85.45;102944.53;5052750;28;20021;-53
2023/05/26 06:47:47;;;;;;;29.50;11.45;;;;;;;9.94;84.50;102934.72;5052863;28;20027;-53
2023/05/26 06:50:13;;;;;;;33.00;13.25;;;;;;;10.07;84.66;102948.25;5052454;28;20399;-54
2023/05/26 06:52:38;;;;;;;28.65;11.48;;;;;;;10.13;83.10;102954.69;5052614;28;20291;-55
2023/05/26 06:55:04;;;;;;;28.25;11.70;;;;;;;10.14;83.61;102942.53;5045238;28;20435;-54
2023/05/26 06:57:30;;;;;;;29.60;12.10;;;;;;;10.12;82.35;102951.06;5052501;28;20548;-53
2023/05/26 06:59:55;;;;;;;35.65;12.90;;;;;;;10.10;83.13;102946.88;5052077;28;20025;-54
2023/05/26 07:02:20;;;;;;;30.27;12.05;;;;;;;10.04;83.10;102945.13;5034491;28;20029;-54
2023/05/26 07:04:45;;;;;;;28.77;11.10;;;;;;;10.03;83.23;102941.53;5030656;28;20069;-54
2023/05/26 07:07:11;;;;;;;30.73;12.18;;;;;;;10.00;82.88;102947.56;5030784;28;20029;-54
2023/05/26 07:09:36;;;;;;;32.53;12.35;;;;;;;10.04;83.10;102953.44;5028938;28;20037;-53
2023/05/26 07:12:02;;;;;;;31.70;12.68;;;;;;;10.09;83.24;102940.53;5030466;28;20040;-54
2023/05/26 07:14:27;;;;;;;27.00;12.45;;;;;;;10.25;82.73;102952.66;5030364;28;20032;-53
2023/05/26 07:16:52;;;;;;;28.88;12.15;;;;;;;10.32;81.94;102943.38;5030332;28;20056;-53
2023/05/26 07:19:17;;;;;;;28.98;12.68;;;;;;;10.44;81.77;102947.75;5028444;28;20036;-53
2023/05/26 07:21:43;;;;;;;30.30;11.73;;;;;;;10.63;80.07;102954.94;5030083;28;20038;-54
2023/05/26 07:24:08;;;;;;;28.30;12.07;;;;;;;10.79;80.14;102947.66;5030148;28;20087;-56
2023/05/26 07:26:33;;;;;;;28.33;11.90;;;;;;;10.90;78.48;102950.34;5030238;28;20375;-55
2023/05/26 07:28:59;;;;;;;29.00;11.40;;;;;;;11.08;78.39;102954.69;5030260;28;20049;-54
2023/05/26 07:31:24;;;;;;;25.17;11.50;;;;;;;11.24;76.62;102960.44;5030190;28;20060;-54
2023/05/26 07:33:50;;;;;;;28.60;11.30;;;;;;;11.20;75.71;102959.28;5030005;28;20076;-55
2023/05/26 07:36:15;;;;;;;27.77;11.63;;;;;;;11.08;75.31;102951.09;5030036;28;20033;-52
2023/05/26 07:38:40;;;;;;;27.63;11.35;;;;;;;11.00;74.99;102949.63;5030043;28;20338;-52
2023/05/26 07:41:06;;;;;;;26.05;11.07;;;;;;;11.13;74.88;102953.09;5012208;28;20076;-54
2023/05/26 07:43:31;;;;;;;31.70;11.73;;;;;;;11.26;75.69;102952.69;5029757;28;20064;-53
2023/05/26 07:45:58;;;;;;;31.77;12.15;;;;;;;11.28;75.69;102944.13;5029560;28;20063;-53
2023/05/26 07:48:23;;;;;;;26.33;10.82;;;;;;;11.36;75.04;102950.03;5028847;28;20040;-52
2023/05/26 07:50:49;;;;;;;28.02;11.50;;;;;;;11.35;74.18;102951.13;5029592;28;20026;-52
2023/05/26 07:53:14;;;;;;;27.48;11.60;;;;;;;11.39;73.68;102948.66;5011408;28;20037;-51
2023/05/26 07:55:39;;;;;;;27.02;11.57;;;;;;;11.25;73.69;102945.47;5029631;28;20026;-53
2023/05/26 07:58:05;;;;;;;25.00;11.63;;;;;;;11.33;73.62;102946.94;5029569;28;20036;-53
2023/05/26 08:00:30;;;;;;;30.15;11.25;;;;;;;11.42;73.28;102950.09;5029365;28;20037;-53
2023/05/26 08:02:56;;;;;;;26.45;11.30;;;;;;;11.52;72.47;102953.81;5028026;28;20033;-50
2023/05/26 08:05:21;;;;;;;25.55;11.15;;;;;;;11.73;72.31;102955.94;5027302;28;20030;-54
2023/05/26 08:07:46;;;;;;;26.60;11.35;;;;;;;11.71;71.79;102947.91;5027656;28;20501;-50
2023/05/26 08:10:12;;;;;;;30.98;11.07;;;;;;;11.78;71.83;102954.06;5027388;28;20021;-51
2023/05/26 08:12:37;;;;;;;28.33;11.18;;;;;;;11.79;71.36;102955.75;5027188;28;20068;-50
2023/05/26 08:15:04;;;;;;;28.02;10.93;;;;;;;11.94;71.38;102946.72;5027321;28;20022;-52
2023/05/26 08:17:29;;;;;;;28.52;11.68;;;;;;;12.04;70.24;102957.13;5027856;28;20025;-53
2023/05/26 08:19:55;;;;;;;25.90;10.90;;;;;;;12.04;67.97;102948.81;5027616;28;20033;-52
2023/05/26 08:22:20;;;;;;;31.55;11.80;;;;;;;12.08;69.05;102947.16;5029230;28;20029;-53
2023/05/26 08:24:45;;;;;;;28.02;11.80;;;;;;;12.12;69.65;102947.47;5050549;28;20043;-54
2023/05/26 08:27:10;;;;;;;27.95;11.27;;;;;;;12.00;67.84;102950.41;5069284;28;20047;-52
2023/05/26 08:29:36;;;;;;;30.70;11.40;;;;;;;12.15;68.76;102960.81;5070214;28;20537;-55
2023/05/26 08:32:01;;;;;;;25.40;11.35;;;;;;;12.26;67.86;102948.69;5072199;28;20535;-53
2023/05/26 08:34:26;;;;;;;26.17;11.07;;;;;;;12.30;67.49;102935.13;5074225;28;20570;-54
2023/05/26 08:36:52;;;;;;;23.08;10.48;;;;;;;12.44;66.67;102946.59;5074565;28;20435;-53
2023/05/26 08:39:17;;;;;;;29.65;11.15;;;;;;;12.61;66.73;102938.09;5074456;28;20021;-55
2023/05/26 08:41:51;;;;;;;26.45;10.80;;;;;;;12.75;66.14;102933.72;5074434;28;20421;-52
2023/05/26 08:44:17;;;;;;;27.05;10.95;;;;;;;12.68;64.68;102943.38;5074356;28;20036;-54
2023/05/26 08:46:45;;;;;;;25.42;11.20;;;;;;;12.78;65.18;102941.53;5074408;28;20021;-52
2023/05/26 08:49:16;;;;;;;28.40;11.50;;;;;;;12.84;65.87;102941.53;5074173;28;20032;-52
2023/05/26 08:51:44;;;;;;;27.73;11.50;;;;;;;12.87;65.71;102933.50;5073631;28;20028;-53
2023/05/26 08:54:10;;;;;;;28.58;11.23;;;;;;;13.02;65.27;102935.50;5073563;28;20039;-54
2023/05/26 08:56:36;;;;;;;28.25;10.95;;;;;;;13.15;64.05;102936.94;5073713;28;20532;-53
2023/05/26 08:59:02;;;;;;;28.58;11.00;;;;;;;13.26;64.02;102926.72;5073484;28;20170;-54
2023/05/26 09:01:27;;;;;;;26.17;10.85;;;;;;;13.29;63.05;102928.91;5073442;28;20031;-54
2023/05/26 09:03:52;;;;;;;28.13;11.27;;;;;;;13.37;63.07;102933.94;5073360;28;20146;-52
2023/05/26 09:06:18;;;;;;;25.40;10.65;;;;;;;13.32;60.81;102939.50;5073434;28;20174;-53
2023/05/26 09:08:43;;;;;;;25.77;11.55;;;;;;;13.29;61.76;102937.25;5073749;28;20093;-53
2023/05/26 09:11:24;;;;;;;25.05;11.07;;;;;;;13.14;61.60;102938.03;5073403;28;20033;-52
2023/05/26 09:13:56;;;;;;;26.83;11.63;;;;;;;13.09;61.51;102926.91;5073781;28;20107;-53
2023/05/26 09:16:23;;;;;;;26.25;11.00;;;;;;;13.19;61.27;102929.72;5073631;28;20020;-53
2023/05/26 09:18:49;;;;;;;26.67;11.15;;;;;;;13.27;61.34;102929.19;5072234;28;20056;-54
2023/05/26 09:21:15;;;;;;;24.65;10.80;;;;;;;13.48;61.10;102939.56;5072164;28;20024;-55
2023/05/26 09:23:44;;;;;;;26.23;10.75;;;;;;;13.74;60.54;102940.44;5072140;28;20051;-51
2023/05/26 09:26:10;;;;;;;28.48;10.77;;;;;;;13.89;57.97;102934.88;5072487;28;20140;-54
2023/05/26 09:28:35;;;;;;;25.55;11.80;;;;;;;13.91;58.60;102939.34;5071895;28;20068;-54
2023/05/26 09:31:08;;;;;;;25.38;10.85;;;;;;;13.75;56.61;102947.69;5071740;28;20508;-56
2023/05/26 09:33:44;;;;;;;26.73;11.07;;;;;;;13.76;58.43;102937.38;5071966;28;20047;-54
2023/05/26 09:36:09;;;;;;;23.20;10.75;;;;;;;13.95;57.79;102944.06;5073095;28;20036;-54
2023/05/26 09:38:35;;;;;;;26.00;10.23;;;;;;;14.00;56.79;102938.50;5073202;28;20506;-52
2023/05/26 09:41:00;;;;;;;26.77;10.70;;;;;;;14.19;56.36;102941.56;5073018;28;20426;-52
2023/05/26 09:43:25;;;;;;;23.95;10.73;;;;;;;14.22;53.85;102945.72;5071559;28;20383;-52
2023/05/26 09:45:51;;;;;;;23.30;10.65;;;;;;;14.11;55.84;102944.91;5072879;28;20044;-54
2023/05/26 09:48:16;;;;;;;25.05;10.30;;;;;;;14.15;55.13;102946.03;5055998;28;20102;-54
2023/05/26 09:50:41;;;;;;;25.35;10.50;;;;;;;14.28;54.46;102949.34;5052685;28;20041;-52
2023/05/26 09:53:09;;;;;;;24.25;11.00;;;;;;;14.45;55.07;102944.28;5052560;28;20180;-52
2023/05/26 09:55:38;;;;;;;23.50;9.88;;;;;;;14.45;54.52;102951.81;5052400;28;20064;-54
2023/05/26 09:58:05;;;;;;;24.23;10.75;;;;;;;14.44;54.18;102945.44;5052833;28;20095;-52
2023/05/26 10:00:34;;;;;;;25.15;10.40;;;;;;;14.50;54.62;102926.75;5052562;28;20033;-55
2023/05/26 10:03:04;;;;;;;26.27;11.05;;;;;;;14.78;54.22;102930.06;5052471;28;20103;-50
2023/05/26 10:05:32;;;;;;;24.73;10.23;;;;;;;14.79;51.81;102931.69;5052327;28;20112;-53
2023/05/26 10:07:59;;;;;;;26.67;10.88;;;;;;;14.76;52.63;102935.91;5052518;28;20041;-53
2023/05/26 10:10:28;;;;;;;24.83;10.82;;;;;;;14.91;52.87;102932.22;5052130;28;20025;-53
2023/05/26 10:12:54;;;;;;;27.63;10.95;;;;;;;14.94;52.39;102931.66;5063272;28;20093;-53
2023/05/26 10:15:20;;;;;;;23.38;10.93;;;;;;;15.18;52.97;102930.16;5072737;28;20093;-54
2023/05/26 10:17:45;;;;;;;25.58;11.10;;;;;;;15.39;52.73;102916.94;5072727;28;20809;-53
2023/05/26 10:20:10;;;;;;;24.85;11.05;;;;;;;15.47;51.11;102923.88;5071431;28;20028;-54
2023/05/26 10:22:58;;;;;;;25.70;10.65;;;;;;;15.41;50.93;102917.47;5072615;28;20516;-54
2023/05/26 10:25:34;;;;;;;25.58;10.95;;;;;;;15.44;51.57;102914.13;5072463;28;20040;-55
2023/05/26 10:28:17;;;;;;;25.42;10.80;;;;;;;15.39;52.01;102915.00;5072437;28;20161;-53
2023/05/26 10:30:43;;;;;;;26.57;10.80;;;;;;;15.35;50.46;102918.66;5054412;28;20051;-55
2023/05/26 10:33:14;;;;;;;23.85;11.10;;;;;;;15.54;50.55;102907.63;5072093;28;20028;-53
2023/05/26 10:35:57;;;;;;;25.88;10.32;;;;;;;15.72;50.63;102906.94;5072133;28;20028;-52
2023/05/26 10:38:26;;;;;;;23.40;9.57;;;;;;;15.97;49.03;102902.28;5072023;28;20032;-54
2023/05/26 10:40:52;;;;;;;23.83;10.20;;;;;;;16.15;47.97;102906.31;5071981;28;20271;-54
2023/05/26 10:43:20;;;;;;;23.90;10.52;;;;;;;15.99;47.69;102899.22;5071935;28;20028;-54
2023/05/26 10:45:59;;;;;;;22.67;9.82;;;;;;;16.15;49.10;102906.31;5071838;28;20037;-52
2023/05/26 10:48:25;;;;;;;27.23;10.70;;;;;;;15.93;47.33;102892.00;5071827;28;20055;-52
2023/05/26 10:51:00;;;;;;;25.27;10.48;;;;;;;16.01;48.51;102903.38;5071608;28;20025;-52
2023/05/26 10:53:30;;;;;;;26.35;10.45;;;;;;;16.04;47.72;102894.41;5071672;28;20032;-55
2023/05/26 10:56:02;;;;;;;21.42;9.82;;;;;;;16.19;46.61;102890.66;5071217;28;20048;-54
2023/05/26 10:58:40;;;;;;;22.15;9.98;;;;;;;16.24;45.93;102903.72;5071585;28;20048;-52
2023/05/26 11:01:09;;;;;;;23.10;9.65;;;;;;;16.14;44.56;102899.06;5071554;28;20169;-53
2023/05/26 11:03:36;;;;;;;22.42;9.80;;;;;;;16.31;46.03;102892.19;5048454;28;20025;-57
2023/05/26 11:06:02;;;;;;;25.17;11.13;;;;;;;16.47;46.38;102898.44;5042290;28;20116;-53
2023/05/26 11:08:35;;;;;;;22.75;9.98;;;;;;;16.52;45.49;102895.59;5034376;28;20163;-53
2023/05/26 11:11:05;;;;;;;26.10;10.52;;;;;;;16.44;44.88;102890.63;5031800;28;20030;-53